Domov               UVHVVR             MKGP            O straneh              
ZDRAVSTVENO VARSTVO RASTLIN
  MREŽA AGROMET. POSTAJ
 ► PROGNOSTIČNA OBVESTILA
AGROMETEOROLOŠKI PODATKI -
ARSO
OBVLADOVANJE TVEGANJ ZARADI
NEUGODNIH VREMENSKIH RAZMER
  ► NARAVNE NESREČE
  ► SUŠA/MOČA
  ► NAMAKANJE
  ► ŽLED (gozdarstvo)
KARTOGRAFSKI PRIKAZI
SPLETNE POVEZAVE
PROJEKTI IN PUBLIKACIJE

AGROMETEOROLOŠKA MREŽA: VREMENSKE POSTAJE IN FENOLOŠKA OPAZOVANJA

Pregled podatkov za lokacijo Šlovrenc, meteorološka postaja 859088

Pregled senzorjev na lokaciji

ID Ime Zadnja
vrednost
Datum
zadnje
spremembe
Tip
senzorja
3973 Temperatura 2 m (°C) 6,05 °C 20.1.2018 11:30 50YA
3974 Relativna vlaga 2 m (% RH) 69,61 % RH 20.1.2018 11:30 50YA
3975 Omočenost lista (U) 0 U 16.11.2017 05:00 A730WET
3976 Padavine (mm) 0 mm 20.1.2018 11:30 Rain-O-Matic

Pregled podatkov zadnjih 24 ur

Zap.
št.
Datum in čas Šlovrenc
Omočenost
lista
Padavine Relativna
vlaga
2
m
Temperatura
2
m
0 20.1.2018 11:30 0 69,61 6,05
1 20.1.2018 11:00 0 64,61 7,05
2 20.1.2018 10:30 0 64,8 6,38
3 20.1.2018 10:00 0 69,96 4,87
4 20.1.2018 09:30 0 91,34 1,35
5 20.1.2018 09:00 0 93,81 -0,19
6 20.1.2018 08:30 0 93,8 -0,61
7 20.1.2018 08:00 0 93,39 -1,02
8 20.1.2018 07:30 0 91,99 -0,57
9 20.1.2018 07:00 0 89,98 -0,32
10 20.1.2018 06:30 0 86,63 0,58
11 20.1.2018 06:00 0 80,74 1,79
12 20.1.2018 05:30 0 71,93 3,9
13 20.1.2018 05:00 0 69,2 4,67
14 20.1.2018 04:30 0 69,74 4,74
15 20.1.2018 04:00 0 73,23 4,06
16 20.1.2018 03:30 0 91,61 -0,13
17 20.1.2018 03:00 0 90,32 -0,14
18 20.1.2018 02:30 0 88,65 0,41
19 20.1.2018 02:00 0 84,86 1,24
20 20.1.2018 01:30 0 81,54 2,13
21 20.1.2018 01:00 0 73,63 3,81
22 20.1.2018 00:30 0 64,72 5,95
23 20.1.2018 00:00 0 68,46 5,22
24 19.1.2018 23:30 0 67,39 5,77
25 19.1.2018 23:00 0 65,54 6,46
26 19.1.2018 22:30 0 66,45 6,51
27 19.1.2018 22:00 0 69,07 6,31
28 19.1.2018 21:30 0 72,21 6,2
29 19.1.2018 21:00 0 71,62 7,15
30 19.1.2018 20:30 0 80,48 6,27
31 19.1.2018 20:00 0 85,78 5,69
32 19.1.2018 19:30 0 85,29 6,1
33 19.1.2018 19:00 0 77,18 7,64
34 19.1.2018 18:30 0 78,8 7,54
35 19.1.2018 18:00 0 79,43 7,46
36 19.1.2018 17:30 0 80,57 7,56
37 19.1.2018 17:00 0 80,34 7,83
38 19.1.2018 16:30 0 75,91 8,81
39 19.1.2018 16:00 0 75,23 9,4
40 19.1.2018 15:30 0 77,81 9,32
41 19.1.2018 15:00 0 77,76 9,22
42 19.1.2018 14:30 0 80,6 8,9
43 19.1.2018 14:00 0 80,81 8,63
44 19.1.2018 13:30 0 83 8,61
45 19.1.2018 13:00 0 87 8,26
46 19.1.2018 12:30 0 89,28 7,8
© 2011 Ministrstvo za kmetijstvo, gozdarstvo in prehrano. Vse pravice pridržane.